Time;durP1;ratioP1;P1;durP2;ratioP2;P2;SDS_P1;SDS_P2;PMS_P1;PMS_P2;Temp;Humidity;BMP_temperature;BMP_pressure;BME280_temperature;BME280_humidity;BME280_pressure;Samples;Min_cycle;Max_cycle;Signal;HPM_P1;HPM_P2
2023/10/23 00:00:09;;;;;;;6.32;4.65;;;;;;;12.52;67.04;99045.53;5105740;28;20285;-73
2023/10/23 00:02:38;;;;;;;4.50;3.67;;;;;;;12.51;67.33;99052.66;5105545;28;20052;-73
2023/10/23 00:05:05;;;;;;;5.38;3.42;;;;;;;12.51;67.77;99054.47;5105061;28;20058;-73
2023/10/23 00:07:33;;;;;;;5.88;3.70;;;;;;;12.50;67.95;99058.91;5104556;28;20044;-74
2023/10/23 00:10:00;;;;;;;7.18;3.80;;;;;;;12.50;67.90;99050.09;5104469;28;20043;-73
2023/10/23 00:12:27;;;;;;;6.00;3.83;;;;;;;12.47;67.87;99052.97;5105383;28;20226;-74
2023/10/23 00:14:54;;;;;;;4.80;3.25;;;;;;;12.45;67.86;99055.72;5106117;28;20218;-74
2023/10/23 00:17:21;;;;;;;5.45;3.30;;;;;;;12.45;67.47;99055.72;5105832;28;20058;-73
2023/10/23 00:19:47;;;;;;;3.67;2.60;;;;;;;12.46;67.46;99056.56;5105261;28;20044;-73
2023/10/23 00:22:14;;;;;;;4.55;3.45;;;;;;;12.44;67.59;99048.72;5105881;28;20105;-73
2023/10/23 00:24:42;;;;;;;4.10;2.67;;;;;;;12.46;67.37;99059.22;5105351;28;20052;-73
2023/10/23 00:27:09;;;;;;;5.43;3.30;;;;;;;12.49;66.94;99065.19;5105285;28;20043;-73
2023/10/23 00:29:35;;;;;;;3.70;2.63;;;;;;;12.53;66.57;99065.84;5105508;28;20238;-74
2023/10/23 00:32:02;;;;;;;4.13;2.58;;;;;;;12.48;66.86;99066.16;5104976;28;20055;-73
2023/10/23 00:34:29;;;;;;;3.70;2.42;;;;;;;12.48;66.59;99062.63;5105626;28;20040;-73
2023/10/23 00:36:55;;;;;;;3.95;2.28;;;;;;;12.44;66.36;99069.13;5105433;28;20044;-73
2023/10/23 00:39:22;;;;;;;3.80;2.70;;;;;;;12.38;66.77;99073.03;5105648;28;20067;-74
2023/10/23 00:41:50;;;;;;;4.25;2.60;;;;;;;12.37;66.74;99070.47;5105374;28;20337;-74
2023/10/23 00:44:17;;;;;;;4.75;2.10;;;;;;;12.39;66.50;99065.91;5104221;28;20093;-73
2023/10/23 00:46:45;;;;;;;3.97;2.47;;;;;;;12.40;66.19;99080.91;5105318;28;20048;-73
2023/10/23 00:49:12;;;;;;;3.17;2.28;;;;;;;12.34;66.50;99076.00;5108406;28;20050;-73
2023/10/23 00:51:39;;;;;;;3.42;2.38;;;;;;;12.27;66.45;99080.03;5108740;28;20036;-73
2023/10/23 00:54:07;;;;;;;5.57;2.55;;;;;;;12.29;66.25;99072.81;5108961;28;20040;-74
2023/10/23 00:56:35;;;;;;;3.40;2.45;;;;;;;12.28;65.79;99069.28;5109185;28;20050;-73
2023/10/23 00:59:03;;;;;;;3.15;2.22;;;;;;;12.16;66.65;99070.06;5109175;28;20043;-73
2023/10/23 01:01:33;;;;;;;3.45;2.42;;;;;;;12.08;67.07;99080.34;5108050;28;20296;-73
2023/10/23 01:04:00;;;;;;;3.53;2.50;;;;;;;12.01;67.28;99079.03;5109047;28;20044;-73
2023/10/23 01:06:27;;;;;;;3.85;2.30;;;;;;;11.93;67.72;99081.31;5108706;28;20051;-73
2023/10/23 01:08:54;;;;;;;4.85;2.33;;;;;;;11.95;67.67;99076.75;5108711;28;20062;-73
2023/10/23 01:11:21;;;;;;;4.90;2.55;;;;;;;12.01;67.39;99076.38;5108720;28;20051;-73
2023/10/23 01:13:48;;;;;;;4.28;2.70;;;;;;;12.01;67.81;99074.59;5108889;28;20055;-73
2023/10/23 01:16:16;;;;;;;3.30;2.35;;;;;;;11.97;67.44;99074.84;5108203;28;20048;-73
2023/10/23 01:18:43;;;;;;;3.53;2.30;;;;;;;11.92;67.98;99071.66;5108502;28;20093;-73
2023/10/23 01:21:10;;;;;;;4.18;2.47;;;;;;;11.89;68.41;99076.22;5108140;28;20308;-73
2023/10/23 01:23:37;;;;;;;4.47;2.13;;;;;;;11.41;68.00;98983.81;5107232;28;20040;-73
2023/10/23 01:26:05;;;;;;;3.63;2.67;;;;;;;11.91;67.81;99065.47;5090599;28;20208;-73
2023/10/23 01:28:32;;;;;;;5.50;2.58;;;;;;;11.90;67.84;99066.44;5108297;28;20052;-73
2023/10/23 01:30:59;;;;;;;4.25;2.53;;;;;;;11.86;68.05;99065.78;5108196;28;20116;-73
2023/10/23 01:33:26;;;;;;;3.75;2.22;;;;;;;11.88;68.16;99068.34;5108187;28;20235;-73
2023/10/23 01:35:52;;;;;;;4.28;2.60;;;;;;;11.85;68.27;99065.88;5108483;28;20281;-73
2023/10/23 01:38:19;;;;;;;4.25;2.95;;;;;;;11.83;68.54;99065.97;5107104;28;20043;-73
2023/10/23 01:40:46;;;;;;;4.35;3.03;;;;;;;11.83;68.17;99068.63;5108483;28;20107;-73
2023/10/23 01:43:14;;;;;;;3.70;2.83;;;;;;;11.85;67.85;99071.19;5107835;28;20047;-73
2023/10/23 01:45:41;;;;;;;4.28;2.88;;;;;;;11.82;67.92;99068.75;5108425;28;20044;-73
2023/10/23 01:48:07;;;;;;;5.15;3.25;;;;;;;11.80;67.65;99073.28;5107306;28;20152;-73
2023/10/23 01:50:34;;;;;;;3.92;2.60;;;;;;;11.77;67.98;99065.53;5106928;28;20052;-73
2023/10/23 01:53:01;;;;;;;4.40;3.00;;;;;;;11.77;68.09;99062.88;5108230;28;20097;-73
2023/10/23 01:55:27;;;;;;;3.42;2.40;;;;;;;11.74;67.76;99063.91;5106677;28;20085;-73
2023/10/23 01:57:56;;;;;;;4.15;2.70;;;;;;;11.69;68.31;99063.38;5107843;28;20094;-74
2023/10/23 02:00:24;;;;;;;4.07;2.83;;;;;;;11.68;67.84;99063.47;5106237;28;20047;-73
2023/10/23 02:02:51;;;;;;;4.35;2.97;;;;;;;11.65;68.06;99061.00;5107422;28;20060;-73
2023/10/23 02:05:18;;;;;;;4.38;2.70;;;;;;;11.64;67.97;99064.63;5107876;28;20246;-73
2023/10/23 02:07:45;;;;;;;3.58;2.40;;;;;;;11.14;67.79;98968.72;5106564;28;20036;-73
2023/10/23 02:10:11;;;;;;;4.50;3.05;;;;;;;10.56;68.10;98876.06;5107341;28;20047;-73
2023/10/23 02:12:38;;;;;;;3.90;2.58;;;;;;;11.63;67.94;99049.63;5107608;28;20052;-73
2023/10/23 02:15:06;;;;;;;4.95;2.80;;;;;;;11.63;68.11;99053.16;5106309;28;20039;-73
2023/10/23 02:17:34;;;;;;;4.03;2.90;;;;;;;11.63;67.77;99052.28;5107766;28;20036;-73
2023/10/23 02:20:01;;;;;;;3.67;2.65;;;;;;;11.60;67.85;99057.78;5107445;28;20058;-73
2023/10/23 02:22:27;;;;;;;4.40;2.60;;;;;;;11.60;68.05;99061.31;5106251;28;20047;-73
2023/10/23 02:24:54;;;;;;;3.88;2.72;;;;;;;11.57;68.14;99051.72;5107318;28;20039;-73
2023/10/23 02:27:21;;;;;;;4.53;2.60;;;;;;;11.59;68.70;99046.31;5106159;28;20048;-73
2023/10/23 02:29:47;;;;;;;4.35;2.80;;;;;;;11.59;68.39;99056.09;5106929;28;20295;-73
2023/10/23 02:32:14;;;;;;;4.20;2.60;;;;;;;11.53;68.50;99055.53;5106012;28;20040;-73
2023/10/23 02:34:43;;;;;;;5.97;3.10;;;;;;;11.40;68.07;99021.91;5107455;28;20059;-73
2023/10/23 02:37:10;;;;;;;3.78;2.58;;;;;;;11.30;68.46;99018.16;5107289;28;20043;-73
2023/10/23 02:39:36;;;;;;;4.32;2.97;;;;;;;11.51;68.31;99054.78;5105902;28;20036;-73
2023/10/23 02:42:03;;;;;;;4.68;2.80;;;;;;;11.51;68.62;99048.63;5106443;28;20044;-73
2023/10/23 02:44:30;;;;;;;3.70;2.70;;;;;;;11.49;68.79;99056.69;5106955;28;20044;-73
2023/10/23 02:46:57;;;;;;;3.97;3.00;;;;;;;11.48;68.97;99062.94;5105803;28;20296;-73
2023/10/23 02:49:24;;;;;;;4.18;2.95;;;;;;;11.52;68.61;99071.56;5106564;28;20048;-71
2023/10/23 02:51:52;;;;;;;4.07;2.88;;;;;;;11.56;68.17;99070.41;5106837;28;20063;-71
2023/10/23 02:54:19;;;;;;;5.47;3.20;;;;;;;11.56;68.52;99067.75;5106814;28;20191;-71
2023/10/23 02:56:46;;;;;;;4.05;2.67;;;;;;;11.51;68.83;99075.16;5106663;28;20115;-71
2023/10/23 02:59:13;;;;;;;3.92;2.80;;;;;;;11.48;68.89;99084.16;5105559;28;20040;-71
2023/10/23 03:01:39;;;;;;;4.65;3.33;;;;;;;11.47;68.68;99078.97;5106404;28;20066;-71
2023/10/23 03:04:06;;;;;;;4.60;3.17;;;;;;;11.48;68.53;99078.00;5106613;28;20052;-71
2023/10/23 03:06:33;;;;;;;4.40;3.20;;;;;;;11.47;68.85;99081.59;5106531;28;20032;-70
2023/10/23 03:09:03;;;;;;;5.85;3.42;;;;;;;11.45;69.20;99087.00;5106767;28;20040;-71
2023/10/23 03:11:29;;;;;;;4.95;2.72;;;;;;;11.46;69.18;99087.88;5106227;28;20200;-71
2023/10/23 03:13:56;;;;;;;3.70;2.60;;;;;;;11.40;68.88;99082.94;5105320;28;20085;-71
2023/10/23 03:16:24;;;;;;;3.78;2.72;;;;;;;11.47;68.98;99089.56;5106544;28;20040;-71
2023/10/23 03:18:51;;;;;;;4.65;3.30;;;;;;;11.45;69.03;99092.31;5106573;28;20048;-71
2023/10/23 03:21:18;;;;;;;4.20;2.78;;;;;;;11.28;69.29;99065.13;5105743;28;20077;-73
2023/10/23 03:23:45;;;;;;;4.03;3.22;;;;;;;11.45;69.68;99099.44;5106614;28;20185;-73
2023/10/23 03:26:13;;;;;;;4.32;3.00;;;;;;;11.45;69.35;99096.78;5105139;28;20308;-73
2023/10/23 03:28:39;;;;;;;4.93;3.08;;;;;;;11.42;69.47;99103.13;5106237;28;20040;-73
2023/10/23 03:31:06;;;;;;;5.20;3.03;;;;;;;11.43;69.88;99101.31;5105829;28;20102;-73
2023/10/23 03:33:33;;;;;;;4.38;3.00;;;;;;;11.37;69.96;99107.00;5105573;28;20052;-73
2023/10/23 03:36:00;;;;;;;3.95;2.97;;;;;;;11.42;69.70;99100.47;5104926;28;20036;-73
2023/10/23 03:38:27;;;;;;;4.38;3.03;;;;;;;11.43;69.91;99106.63;5106073;28;20236;-73
2023/10/23 03:40:58;;;;;;;5.15;3.90;;;;;;;11.40;69.70;99112.97;5105731;28;20052;-73
2023/10/23 03:43:26;;;;;;;6.18;4.80;;;;;;;11.39;69.81;99097.16;5105730;28;20036;-73
2023/10/23 03:45:54;;;;;;;4.68;3.63;;;;;;;11.37;69.79;99080.47;5105838;28;20097;-73
2023/10/23 03:48:20;;;;;;;5.40;3.88;;;;;;;11.39;69.94;99108.63;5106240;28;20048;-73
2023/10/23 03:50:47;;;;;;;4.97;3.80;;;;;;;11.38;69.85;99109.56;5106184;28;20055;-73
2023/10/23 03:53:14;;;;;;;4.82;3.13;;;;;;;11.37;70.23;99113.19;5106244;28;20089;-73
2023/10/23 03:55:41;;;;;;;6.55;3.28;;;;;;;11.37;69.74;99099.91;5104982;28;20292;-73
2023/10/23 03:58:07;;;;;;;4.82;3.05;;;;;;;11.36;69.87;99103.50;5105852;28;20103;-73
2023/10/23 04:00:35;;;;;;;4.25;3.17;;;;;;;11.19;69.97;99085.13;5105605;28;20043;-73
2023/10/23 04:03:03;;;;;;;5.47;2.97;;;;;;;11.37;70.16;99113.19;5105487;28;20109;-74
2023/10/23 04:05:31;;;;;;;3.72;2.72;;;;;;;11.38;69.57;99114.03;5104698;28;20044;-73
2023/10/23 04:07:58;;;;;;;6.15;3.35;;;;;;;11.34;69.84;99115.16;5105778;28;20044;-73
2023/10/23 04:10:25;;;;;;;3.92;2.72;;;;;;;11.32;69.77;99120.56;5105820;28;20071;-73
2023/10/23 04:12:51;;;;;;;4.65;2.63;;;;;;;10.93;70.23;99049.63;5105469;28;20304;-73
2023/10/23 04:15:18;;;;;;;3.75;3.03;;;;;;;11.27;70.08;99111.19;5105430;28;20223;-73
2023/10/23 04:17:46;;;;;;;3.97;2.58;;;;;;;11.30;69.72;99108.34;5105888;28;20058;-73
2023/10/23 04:20:14;;;;;;;4.38;2.92;;;;;;;11.27;69.68;99101.44;5105966;28;20052;-73
2023/10/23 04:22:41;;;;;;;5.13;3.35;;;;;;;10.63;69.86;98993.13;5107235;28;20189;-73
2023/10/23 04:25:08;;;;;;;4.65;2.90;;;;;;;11.31;69.26;99100.28;5109077;28;20086;-73
2023/10/23 04:27:35;;;;;;;4.78;2.60;;;;;;;11.32;69.29;99096.69;5108404;28;20036;-73
2023/10/23 04:30:04;;;;;;;5.65;2.83;;;;;;;11.01;69.79;99065.91;5109802;28;20315;-73
2023/10/23 04:32:31;;;;;;;4.30;2.67;;;;;;;11.21;69.98;99101.81;5108434;28;20090;-73
2023/10/23 04:34:59;;;;;;;4.70;2.83;;;;;;;11.17;69.96;99100.28;5109760;28;20051;-73
2023/10/23 04:37:26;;;;;;;3.88;2.70;;;;;;;10.96;70.13;99062.69;5109558;28;20040;-73
2023/10/23 04:39:52;;;;;;;3.80;2.50;;;;;;;10.81;69.82;99040.59;5109359;28;20048;-74
2023/10/23 04:42:19;;;;;;;3.25;2.50;;;;;;;11.18;70.30;99102.84;5109552;28;20055;-73
2023/10/23 04:44:47;;;;;;;3.45;2.47;;;;;;;11.16;70.29;99104.75;5108127;28;20300;-73
2023/10/23 04:47:14;;;;;;;4.07;2.78;;;;;;;11.17;69.62;99105.59;5109553;28;20048;-73
2023/10/23 04:49:41;;;;;;;4.63;2.90;;;;;;;11.01;69.75;99076.50;5109186;28;20044;-73
2023/10/23 04:52:09;;;;;;;4.47;2.85;;;;;;;10.96;69.59;99060.03;5109103;28;20059;-73
2023/10/23 04:54:36;;;;;;;4.00;2.92;;;;;;;11.17;70.28;99095.84;5108779;28;20048;-73
2023/10/23 04:57:02;;;;;;;4.55;3.40;;;;;;;11.15;70.26;99099.53;5108658;28;20040;-73
2023/10/23 04:59:29;;;;;;;4.18;3.47;;;;;;;11.15;70.14;99100.38;5109001;28;20044;-73
2023/10/23 05:01:56;;;;;;;5.38;4.30;;;;;;;11.11;70.35;99100.66;5107580;28;20334;-74
2023/10/23 05:04:23;;;;;;;7.07;4.70;;;;;;;11.12;70.17;99099.72;5108873;28;20040;-73
2023/10/23 05:06:49;;;;;;;5.85;3.55;;;;;;;11.12;70.11;99105.88;5108533;28;20040;-73
2023/10/23 05:09:17;;;;;;;5.65;3.80;;;;;;;11.09;70.21;99102.56;5108774;28;20051;-73
2023/10/23 05:11:44;;;;;;;6.00;3.92;;;;;;;11.08;70.44;99101.72;5108713;28;20051;-73
2023/10/23 05:14:12;;;;;;;4.68;3.45;;;;;;;11.09;70.09;99107.88;5108635;28;20048;-73
2023/10/23 05:16:38;;;;;;;4.90;3.47;;;;;;;11.03;70.49;99087.88;5108565;28;20075;-73
2023/10/23 05:19:05;;;;;;;5.47;3.53;;;;;;;10.91;70.64;99072.72;5108602;28;20101;-73
2023/10/23 05:21:32;;;;;;;4.93;3.60;;;;;;;11.04;70.29;99096.69;5108814;28;20040;-73
2023/10/23 05:23:58;;;;;;;6.65;3.97;;;;;;;11.05;70.80;99101.91;5108502;28;20208;-74
2023/10/23 05:26:27;;;;;;;5.60;3.75;;;;;;;11.04;70.57;99107.28;5107253;28;20040;-74
2023/10/23 05:28:54;;;;;;;4.95;3.45;;;;;;;11.06;70.53;99103.59;5108592;28;20040;-73
2023/10/23 05:31:21;;;;;;;5.78;3.95;;;;;;;11.05;70.58;99103.69;5108265;28;20119;-73
2023/10/23 05:33:49;;;;;;;4.78;3.70;;;;;;;11.07;70.76;99107.97;5107132;28;20050;-73
2023/10/23 05:36:15;;;;;;;5.53;3.83;;;;;;;11.04;70.71;99110.78;5107919;28;20296;-74
2023/10/23 05:38:42;;;;;;;6.25;4.65;;;;;;;11.01;70.78;99110.97;5108454;28;20070;-74
2023/10/23 05:41:09;;;;;;;7.13;5.32;;;;;;;10.81;70.64;99079.53;5108128;28;20296;-73
2023/10/23 05:43:38;;;;;;;7.25;5.07;;;;;;;7.99;70.58;98619.91;5107808;28;20103;-73
2023/10/23 05:46:04;;;;;;;8.05;5.07;;;;;;;10.99;70.77;99123.47;5107754;28;20070;-73
2023/10/23 05:48:31;;;;;;;8.93;4.38;;;;;;;10.98;71.08;99135.03;5108269;28;20063;-74
2023/10/23 05:50:59;;;;;;;8.02;4.38;;;;;;;10.99;70.76;99136.75;5108324;28;20076;-74
2023/10/23 05:53:26;;;;;;;7.72;5.15;;;;;;;10.97;70.64;99140.44;5107973;28;20067;-74
2023/10/23 05:55:53;;;;;;;6.82;4.97;;;;;;;10.80;70.97;99115.78;5107867;28;20054;-74
2023/10/23 05:58:19;;;;;;;5.47;3.65;;;;;;;10.95;71.12;99150.28;5107466;28;20036;-74
2023/10/23 06:00:48;;;;;;;6.20;4.50;;;;;;;10.94;71.07;99149.41;5107545;28;20050;-73
2023/10/23 06:03:14;;;;;;;8.60;4.93;;;;;;;10.94;71.27;99152.06;5107380;28;20083;-73
2023/10/23 06:05:42;;;;;;;6.50;4.50;;;;;;;11.06;70.39;99146.03;5107321;28;20211;-74
2023/10/23 06:08:09;;;;;;;6.00;4.20;;;;;;;10.74;71.11;99121.41;5107947;28;20104;-74
2023/10/23 06:10:45;;;;;;;12.15;4.40;;;;;;;10.98;71.44;99166.84;5107299;28;20036;-74
2023/10/23 06:13:12;;;;;;;7.38;4.43;;;;;;;10.99;71.31;99157.94;5106317;28;20062;-73
2023/10/23 06:15:39;;;;;;;5.60;3.92;;;;;;;10.99;71.20;99162.41;5107763;28;20081;-73
2023/10/23 06:18:07;;;;;;;6.10;4.53;;;;;;;10.94;72.02;99160.03;5107358;28;20085;-74
2023/10/23 06:20:36;;;;;;;6.80;4.13;;;;;;;11.02;71.11;99157.78;5107387;28;20063;-73
2023/10/23 06:23:03;;;;;;;7.07;4.47;;;;;;;10.99;71.54;99162.41;5106439;28;20047;-74
2023/10/23 06:25:31;;;;;;;6.90;5.07;;;;;;;11.01;71.69;99164.03;5107043;28;20035;-73
2023/10/23 06:27:58;;;;;;;12.63;5.53;;;;;;;11.02;71.84;99154.25;5107211;28;20052;-74
2023/10/23 06:30:25;;;;;;;9.68;5.38;;;;;;;10.60;71.58;99082.47;5107430;28;20231;-73
2023/10/23 06:32:52;;;;;;;7.65;5.32;;;;;;;11.03;72.19;99140.06;5105631;28;20048;-73
2023/10/23 06:35:20;;;;;;;8.73;5.43;;;;;;;11.04;72.07;99144.41;5107272;28;20048;-74
2023/10/23 06:37:48;;;;;;;7.43;4.65;;;;;;;11.08;72.03;99151.25;5106903;28;20040;-74
2023/10/23 06:40:14;;;;;;;6.40;4.97;;;;;;;11.10;72.17;99154.66;5105727;28;20043;-74
2023/10/23 06:42:41;;;;;;;11.70;5.18;;;;;;;11.11;71.89;99149.25;5106565;28;20055;-74
2023/10/23 06:45:08;;;;;;;8.25;5.15;;;;;;;11.12;72.08;99153.63;5106105;28;20296;-73
2023/10/23 06:47:35;;;;;;;5.97;4.55;;;;;;;11.12;72.49;99152.75;5107017;28;20273;-74
2023/10/23 06:50:02;;;;;;;9.10;5.15;;;;;;;11.14;72.60;99158.81;5106664;28;20060;-74
2023/10/23 06:52:30;;;;;;;7.78;5.13;;;;;;;11.13;73.39;99160.63;5106361;28;20043;-74
2023/10/23 06:54:57;;;;;;;9.38;5.20;;;;;;;11.23;71.71;99140.56;5106751;28;20044;-74
2023/10/23 06:57:24;;;;;;;10.25;5.72;;;;;;;11.33;73.08;99143.50;5106296;28;20044;-74
2023/10/23 06:59:54;;;;;;;8.20;4.80;;;;;;;11.43;71.47;99147.28;5106063;28;20263;-73
2023/10/23 07:02:20;;;;;;;8.50;5.18;;;;;;;11.48;71.95;99149.66;5106286;28;20119;-74
2023/10/23 07:04:47;;;;;;;9.35;5.10;;;;;;;11.61;72.18;99152.41;5105660;28;20052;-74
2023/10/23 07:07:14;;;;;;;7.07;4.85;;;;;;;11.67;72.91;99155.53;5106497;28;20103;-74
2023/10/23 07:09:43;;;;;;;8.57;5.50;;;;;;;11.81;71.96;99147.53;5106758;28;20044;-71
2023/10/23 07:12:09;;;;;;;8.85;5.20;;;;;;;11.95;71.99;99151.13;5106473;28;20349;-71
2023/10/23 07:14:36;;;;;;;14.65;6.70;;;;;;;11.84;71.61;99119.94;5106397;28;20089;-73
2023/10/23 07:17:03;;;;;;;12.18;6.30;;;;;;;12.07;71.29;99142.41;5105138;28;20089;-74
2023/10/23 07:19:30;;;;;;;8.60;6.25;;;;;;;12.07;71.32;99145.91;5105856;28;20048;-74
2023/10/23 07:21:56;;;;;;;7.57;5.68;;;;;;;12.22;71.15;99153.88;5106194;28;20233;-74
2023/10/23 07:24:23;;;;;;;7.47;5.55;;;;;;;12.31;70.74;99147.94;5106034;28;20067;-74
2023/10/23 07:26:51;;;;;;;8.20;5.93;;;;;;;12.43;70.43;99137.38;5105753;28;20109;-74
2023/10/23 07:29:18;;;;;;;12.35;6.15;;;;;;;12.44;69.77;99133.75;5104945;28;20040;-73
2023/10/23 07:31:45;;;;;;;9.93;5.63;;;;;;;12.51;69.74;99142.19;5106250;28;20078;-72
2023/10/23 07:34:11;;;;;;;7.30;5.57;;;;;;;12.54;69.47;99143.78;5106148;28;20097;-72
2023/10/23 07:36:39;;;;;;;5.55;4.50;;;;;;;12.55;69.96;99137.50;5105694;28;20044;-72
2023/10/23 07:39:07;;;;;;;7.85;5.72;;;;;;;12.41;69.58;99106.53;5105438;28;20357;-72
2023/10/23 07:41:34;;;;;;;7.00;5.80;;;;;;;12.64;69.37;99144.88;5105325;28;20054;-73
2023/10/23 07:44:02;;;;;;;6.13;5.53;;;;;;;12.67;69.19;99142.84;5104839;28;20288;-73
2023/10/23 07:46:30;;;;;;;9.00;5.03;;;;;;;12.81;68.78;99141.94;5105934;28;20040;-73
2023/10/23 07:48:57;;;;;;;8.40;5.80;;;;;;;12.87;69.20;99153.97;5105670;28;20047;-74
2023/10/23 07:51:25;;;;;;;9.18;6.47;;;;;;;12.93;68.90;99149.06;5105300;28;20036;-72
2023/10/23 07:53:52;;;;;;;7.03;6.18;;;;;;;13.03;68.25;99149.28;5106059;28;20040;-72
2023/10/23 07:56:18;;;;;;;9.27;7.03;;;;;;;13.13;67.54;99151.22;5105226;28;20058;-72
2023/10/23 07:58:45;;;;;;;8.05;6.68;;;;;;;12.95;67.39;99117.06;5108783;28;20046;-72
2023/10/23 08:01:15;;;;;;;6.55;5.85;;;;;;;13.25;67.56;99152.19;5110087;28;20089;-72
2023/10/23 08:03:42;;;;;;;8.05;6.55;;;;;;;13.26;67.43;99147.72;5109679;28;20109;-72
2023/10/23 08:06:10;;;;;;;14.15;6.60;;;;;;;13.43;66.31;99155.41;5110056;28;20089;-72
2023/10/23 08:08:38;;;;;;;7.45;6.60;;;;;;;13.62;65.65;99154.97;5110565;28;20044;-72
2023/10/23 08:11:06;;;;;;;8.70;6.82;;;;;;;13.75;65.25;99150.47;5108971;28;20050;-72
2023/10/23 08:13:34;;;;;;;9.70;6.88;;;;;;;13.74;64.50;99164.75;5110065;28;20054;-72
2023/10/23 08:16:01;;;;;;;9.45;6.65;;;;;;;13.82;65.25;99149.06;5108878;28;20308;-72
2023/10/23 08:18:29;;;;;;;10.55;6.95;;;;;;;13.91;65.39;99152.88;5108445;28;20043;-72
2023/10/23 08:20:56;;;;;;;8.50;7.22;;;;;;;14.01;64.44;99151.25;5109673;28;20081;-72
2023/10/23 08:23:23;;;;;;;9.80;7.15;;;;;;;14.20;64.06;99159.63;5109381;28;20039;-72
2023/10/23 08:25:49;;;;;;;9.77;6.68;;;;;;;14.01;64.66;99113.97;5109733;28;20055;-72
2023/10/23 08:28:16;;;;;;;10.27;7.55;;;;;;;14.08;62.99;99118.72;5109394;28;20051;-72
2023/10/23 08:30:43;;;;;;;11.32;9.10;;;;;;;14.28;62.40;99156.41;5109268;28;20051;-72
2023/10/23 08:33:09;;;;;;;15.55;8.90;;;;;;;14.40;62.67;99147.50;5108488;28;20044;-72
2023/10/23 08:35:38;;;;;;;9.82;8.07;;;;;;;14.33;62.20;99144.44;5109128;28;20039;-72
2023/10/23 08:38:04;;;;;;;9.68;8.68;;;;;;;14.39;61.82;99145.78;5108847;28;20035;-72
2023/10/23 08:40:31;;;;;;;9.75;8.27;;;;;;;14.44;61.46;99147.16;5109511;28;20058;-72
2023/10/23 08:42:58;;;;;;;9.13;8.23;;;;;;;14.49;60.80;99138.81;5108402;28;20063;-72
2023/10/23 08:45:26;;;;;;;9.43;8.20;;;;;;;14.41;60.22;99114.53;5108803;28;20040;-72
2023/10/23 08:47:53;;;;;;;12.73;9.45;;;;;;;14.65;60.99;99150.09;5109160;28;20059;-72
2023/10/23 08:50:20;;;;;;;9.40;8.27;;;;;;;14.81;60.51;99148.94;5108772;28;20077;-72
2023/10/23 08:52:56;;;;;;;10.07;8.95;;;;;;;14.65;60.63;99128.75;5107982;28;20092;-72
2023/10/23 08:55:25;;;;;;;10.75;8.50;;;;;;;14.98;60.40;99146.69;5107881;28;20047;-72
2023/10/23 08:57:53;;;;;;;10.35;8.18;;;;;;;14.99;60.07;99148.38;5108747;28;20040;-73
2023/10/23 09:00:22;;;;;;;9.25;7.28;;;;;;;15.15;59.49;99144.53;5108182;28;20201;-73
2023/10/23 09:02:49;;;;;;;9.45;7.60;;;;;;;13.99;58.62;98934.72;5107741;28;20101;-73
2023/10/23 09:05:15;;;;;;;10.43;7.85;;;;;;;15.15;59.96;99139.19;5108986;28;20044;-72
2023/10/23 09:07:42;;;;;;;8.23;7.43;;;;;;;15.21;59.05;99136.91;5108351;28;20085;-72
2023/10/23 09:10:11;;;;;;;7.45;6.70;;;;;;;15.06;59.62;99088.22;5107113;28;20082;-72
2023/10/23 09:12:40;;;;;;;8.35;7.53;;;;;;;15.50;58.36;99134.63;5107632;28;20359;-72
2023/10/23 09:15:17;;;;;;;11.40;8.35;;;;;;;15.57;58.94;99141.19;5108333;28;20044;-72
2023/10/23 09:17:45;;;;;;;9.43;7.13;;;;;;;15.62;58.27;99135.47;5108271;28;20108;-72
2023/10/23 09:20:23;;;;;;;11.75;7.05;;;;;;;15.55;58.66;99142.28;5090587;28;20063;-72
2023/10/23 09:22:51;;;;;;;7.45;6.13;;;;;;;15.50;58.70;99137.28;5108471;28;20051;-72
2023/10/23 09:25:21;;;;;;;11.07;6.75;;;;;;;15.56;58.48;99131.47;5108252;28;20071;-73
2023/10/23 09:27:48;;;;;;;7.80;6.03;;;;;;;15.66;58.21;99128.94;5108469;28;20040;-73
2023/10/23 09:30:20;;;;;;;7.32;6.32;;;;;;;15.73;58.19;99124.81;5107273;28;20141;-73
2023/10/23 09:32:50;;;;;;;7.35;6.55;;;;;;;15.70;58.56;99133.06;5107205;28;20180;-73
2023/10/23 09:35:18;;;;;;;6.85;6.13;;;;;;;15.68;58.30;99132.34;5107057;28;20048;-73
2023/10/23 09:37:44;;;;;;;6.78;5.78;;;;;;;15.80;57.17;99127.84;5107877;28;20207;-73
2023/10/23 09:40:12;;;;;;;6.10;5.50;;;;;;;15.81;57.42;99132.22;5107688;28;20093;-73
2023/10/23 09:42:41;;;;;;;6.70;5.78;;;;;;;15.89;57.33;99124.44;5108159;28;20177;-73
2023/10/23 09:45:09;;;;;;;9.05;6.38;;;;;;;15.85;57.70;99120.31;5107312;28;20048;-73
2023/10/23 09:47:36;;;;;;;7.80;5.88;;;;;;;15.86;58.02;99122.00;5106789;28;20081;-73
2023/10/23 09:50:04;;;;;;;10.38;7.00;;;;;;;15.84;57.78;99100.75;5107525;28;20098;-73
2023/10/23 09:52:34;;;;;;;8.65;6.75;;;;;;;16.12;57.67;99118.06;5107858;28;20051;-73
2023/10/23 09:55:03;;;;;;;6.22;5.63;;;;;;;16.04;57.25;99113.34;5107501;28;20040;-73
2023/10/23 09:57:36;;;;;;;7.35;6.00;;;;;;;14.48;57.41;98838.47;5107781;28;20044;-73
2023/10/23 10:00:12;;;;;;;10.25;6.45;;;;;;;16.15;57.70;99104.47;5106553;28;20093;-73
2023/10/23 10:02:40;;;;;;;7.15;5.72;;;;;;;16.24;57.03;99098.34;5107682;28;20059;-73
2023/10/23 10:05:12;;;;;;;8.13;5.97;;;;;;;15.88;57.22;99040.75;5106449;28;20040;-73
2023/10/23 10:07:49;;;;;;;8.40;6.40;;;;;;;16.34;56.99;99093.94;5107482;28;20110;-73
2023/10/23 10:10:17;;;;;;;8.63;6.97;;;;;;;16.43;56.85;99086.13;5107401;28;20040;-73
2023/10/23 10:12:47;;;;;;;6.55;5.05;;;;;;;16.47;56.28;99083.06;5107607;28;20048;-73
2023/10/23 10:15:16;;;;;;;8.85;5.95;;;;;;;16.63;56.46;99082.63;5106259;28;20050;-73
2023/10/23 10:17:43;;;;;;;7.05;5.60;;;;;;;16.66;56.45;99075.22;5106068;28;20040;-73
2023/10/23 10:20:11;;;;;;;8.80;5.30;;;;;;;16.61;56.45;99084.59;5105782;28;20044;-73
2023/10/23 10:22:40;;;;;;;7.50;5.28;;;;;;;16.58;56.44;99077.66;5106180;28;20211;-73
2023/10/23 10:25:11;;;;;;;7.40;5.63;;;;;;;16.72;55.90;99071.19;5105875;28;20040;-73
2023/10/23 10:27:38;;;;;;;7.50;5.40;;;;;;;16.73;56.25;99055.97;5107064;28;20246;-73
2023/10/23 10:30:08;;;;;;;9.48;4.82;;;;;;;16.81;56.55;99062.38;5105722;28;20066;-72
2023/10/23 10:32:36;;;;;;;6.90;4.65;;;;;;;16.93;55.20;99068.50;5105311;28;20040;-72
2023/10/23 10:35:06;;;;;;;7.30;4.85;;;;;;;16.97;55.88;99065.44;5106312;28;20307;-72
2023/10/23 10:37:33;;;;;;;8.77;5.03;;;;;;;16.98;55.59;99058.25;5106146;28;20047;-72
2023/10/23 10:40:09;;;;;;;6.07;3.92;;;;;;;16.87;55.26;99028.88;5107062;28;20105;-72
2023/10/23 10:42:39;;;;;;;6.53;3.67;;;;;;;17.02;55.24;99053.47;5105959;28;20048;-72
2023/10/23 10:45:17;;;;;;;7.13;3.80;;;;;;;17.13;55.08;99040.00;5106135;28;20040;-72
2023/10/23 10:47:49;;;;;;;5.95;3.55;;;;;;;17.16;54.29;99037.06;5106847;28;20052;-72
2023/10/23 10:50:32;;;;;;;4.85;3.42;;;;;;;17.09;55.21;99030.53;5106424;28;20040;-72
2023/10/23 10:53:04;;;;;;;7.78;3.83;;;;;;;17.02;55.05;98992.75;5106719;28;20063;-72
2023/10/23 10:55:31;;;;;;;8.35;3.85;;;;;;;16.62;55.22;98937.31;5105617;28;20044;-72
2023/10/23 10:57:59;;;;;;;5.00;3.33;;;;;;;17.21;55.44;99018.78;5106153;28;20140;-72
2023/10/23 11:00:31;;;;;;;6.10;3.53;;;;;;;17.11;55.55;99017.88;5106703;28;20297;-72
2023/10/23 11:02:59;;;;;;;8.32;2.95;;;;;;;17.12;55.91;99017.75;5106168;28;20055;-71
2023/10/23 11:05:26;;;;;;;4.78;2.75;;;;;;;17.03;55.65;99005.16;5106213;28;20045;-71
2023/10/23 11:07:54;;;;;;;5.47;3.35;;;;;;;17.15;55.72;99003.22;5106326;28;20044;-73
2023/10/23 11:10:23;;;;;;;8.20;4.45;;;;;;;17.28;55.72;99003.88;5106168;28;20109;-72
2023/10/23 11:12:51;;;;;;;6.55;3.45;;;;;;;16.96;55.22;98937.91;5105488;28;20051;-72
2023/10/23 11:15:18;;;;;;;5.78;3.38;;;;;;;17.48;55.41;99002.97;5106520;28;20284;-72
2023/10/23 11:17:44;;;;;;;5.32;3.28;;;;;;;17.50;54.56;98995.63;5106341;28;20101;-72
2023/10/23 11:20:15;;;;;;;6.35;3.88;;;;;;;17.56;54.13;98996.91;5104999;28;20056;-73
2023/10/23 11:22:43;;;;;;;6.28;3.53;;;;;;;17.65;54.26;99000.63;5105975;28;20044;-72
2023/10/23 11:25:10;;;;;;;6.25;3.65;;;;;;;17.64;53.42;98997.09;5104911;28;20040;-72
2023/10/23 11:27:38;;;;;;;5.03;2.88;;;;;;;17.52;54.00;98999.03;5105872;28;20086;-72
2023/10/23 11:30:06;;;;;;;5.75;3.17;;;;;;;17.36;54.59;98996.03;5105547;28;20051;-71
2023/10/23 11:32:33;;;;;;;3.88;2.90;;;;;;;17.33;53.08;99001.66;5105913;28;20135;-72